Time;durP1;ratioP1;P1;durP2;ratioP2;P2;SDS_P1;SDS_P2;PMS_P1;PMS_P2;Temp;Humidity;BMP_temperature;BMP_pressure;BME280_temperature;BME280_humidity;BME280_pressure;Samples;Min_cycle;Max_cycle;Signal;HPM_P1;HPM_P2
2021/05/14 00:00:23;;;;;;;1.80;1.70;;;7.70;99.90;;;;;;4714195;30;20064;-82
2021/05/14 00:02:51;;;;;;;2.28;2.17;;;7.60;99.90;;;;;;4699033;30;20084;-81
2021/05/14 00:05:20;;;;;;;1.60;1.48;;;7.70;99.90;;;;;;4714295;30;20045;-81
2021/05/14 00:07:48;;;;;;;2.67;1.20;;;7.70;99.90;;;;;;4670283;30;20068;-82
2021/05/14 00:10:19;;;;;;;1.48;1.38;;;7.60;99.90;;;;;;4684167;30;20062;-82
2021/05/14 00:12:49;;;;;;;2.38;1.98;;;7.60;99.90;;;;;;4698546;30;20064;-82
2021/05/14 00:15:17;;;;;;;1.58;1.48;;;7.60;99.90;;;;;;4699186;30;20547;-82
2021/05/14 00:17:45;;;;;;;1.55;1.45;;;7.60;99.90;;;;;;4684551;30;20057;-82
2021/05/14 00:20:13;;;;;;;1.63;1.52;;;7.60;99.90;;;;;;4695332;30;20493;-82
2021/05/14 00:22:41;;;;;;;3.10;1.52;;;7.60;99.90;;;;;;4697085;30;20061;-83
2021/05/14 00:25:12;;;;;;;1.58;1.48;;;7.60;99.90;;;;;;4696740;30;20061;-84
2021/05/14 00:27:40;;;;;;;4.22;1.98;;;7.60;99.90;;;;;;4681921;30;20054;-83
2021/05/14 00:30:09;;;;;;;1.75;1.65;;;7.50;99.90;;;;;;4704528;30;20049;-84
2021/05/14 00:32:38;;;;;;;1.50;1.40;;;7.50;99.90;;;;;;4698858;30;20068;-84
2021/05/14 00:35:08;;;;;;;1.30;1.20;;;7.50;99.90;;;;;;4712939;30;20053;-84
2021/05/14 00:37:36;;;;;;;3.35;1.15;;;7.50;99.90;;;;;;4696400;30;20420;-83
2021/05/14 00:40:06;;;;;;;1.23;1.23;;;7.50;99.90;;;;;;4695377;30;20124;-83
2021/05/14 00:42:34;;;;;;;2.00;1.58;;;7.50;99.90;;;;;;4697950;30;20830;-83
2021/05/14 00:45:05;;;;;;;2.63;1.75;;;7.50;99.90;;;;;;4702496;30;20076;-83
2021/05/14 00:47:33;;;;;;;6.65;2.00;;;7.50;99.90;;;;;;4717722;30;20076;-83
2021/05/14 00:50:02;;;;;;;2.67;1.75;;;7.50;99.90;;;;;;4716866;30;20072;-83
2021/05/14 00:52:30;;;;;;;1.75;1.60;;;7.40;99.90;;;;;;4686868;30;20053;-84
2021/05/14 00:54:58;;;;;;;1.27;1.20;;;7.40;99.90;;;;;;4702309;30;20545;-84
2021/05/14 00:57:28;;;;;;;1.30;1.30;;;7.40;99.90;;;;;;4687578;30;20053;-84
2021/05/14 00:59:56;;;;;;;1.17;1.05;;;7.40;99.90;;;;;;4717127;30;20061;-84
2021/05/14 01:02:24;;;;;;;1.27;1.17;;;7.40;99.90;;;;;;4687587;30;20057;-84
2021/05/14 01:04:56;;;;;;;3.85;3.33;;;7.30;99.90;;;;;;4687511;30;20057;-83
2021/05/14 01:07:24;;;;;;;1.15;1.02;;;7.30;99.90;;;;;;4701429;30;20061;-84
2021/05/14 01:09:52;;;;;;;1.75;1.65;;;7.30;99.90;;;;;;4700993;30;20064;-84
2021/05/14 01:12:21;;;;;;;3.03;2.05;;;7.30;99.90;;;;;;4701478;30;20510;-85
2021/05/14 01:14:49;;;;;;;1.73;1.63;;;7.30;99.90;;;;;;4701687;30;20061;-84
2021/05/14 01:17:17;;;;;;;2.10;1.50;;;7.30;99.90;;;;;;4686730;30;20088;-84
2021/05/14 01:19:45;;;;;;;1.40;1.30;;;7.30;99.90;;;;;;4687358;30;20125;-85
2021/05/14 01:22:13;;;;;;;1.42;1.33;;;7.30;99.90;;;;;;4701026;30;20068;-84
2021/05/14 01:24:41;;;;;;;1.10;1.00;;;7.30;99.90;;;;;;4701204;30;20053;-82
2021/05/14 01:27:10;;;;;;;1.02;1.00;;;7.30;99.90;;;;;;4701414;30;20068;-83
2021/05/14 01:29:38;;;;;;;2.08;1.85;;;7.30;99.90;;;;;;4696889;30;20064;-83
2021/05/14 01:32:06;;;;;;;2.30;1.50;;;7.20;99.90;;;;;;4684355;30;20072;-82
2021/05/14 01:34:33;;;;;;;1.50;1.40;;;7.20;99.90;;;;;;4717183;30;20453;-82
2021/05/14 01:37:02;;;;;;;1.40;1.30;;;7.20;99.90;;;;;;4683546;30;20062;-81
2021/05/14 01:39:30;;;;;;;2.13;1.20;;;7.20;99.90;;;;;;4699361;30;20061;-82
2021/05/14 01:41:59;;;;;;;2.05;1.08;;;7.20;99.90;;;;;;4699212;30;20054;-82
2021/05/14 01:44:29;;;;;;;2.50;2.30;;;7.20;99.90;;;;;;4683628;30;20081;-82
2021/05/14 01:46:57;;;;;;;1.23;1.15;;;7.30;99.90;;;;;;4682729;30;20078;-83
2021/05/14 01:49:27;;;;;;;1.30;1.20;;;7.30;99.90;;;;;;4697495;30;20053;-83
2021/05/14 01:51:55;;;;;;;1.40;1.30;;;7.30;99.90;;;;;;4696396;30;20362;-82
2021/05/14 01:54:24;;;;;;;1.10;1.10;;;7.30;99.90;;;;;;4683675;30;20061;-83
2021/05/14 01:56:52;;;;;;;2.25;2.05;;;7.20;99.90;;;;;;4698888;30;20065;-82
2021/05/14 01:59:24;;;;;;;1.13;0.98;;;7.20;99.90;;;;;;4700138;30;20069;-83
2021/05/14 02:01:55;;;;;;;1.48;1.38;;;7.30;99.90;;;;;;4715614;30;20527;-82
2021/05/14 02:04:24;;;;;;;3.85;1.90;;;7.30;99.90;;;;;;4714802;30;20062;-82
2021/05/14 02:06:51;;;;;;;1.80;1.20;;;7.30;99.90;;;;;;4714951;30;20064;-82
2021/05/14 02:09:20;;;;;;;1.90;1.80;;;7.30;99.90;;;;;;4699877;30;20142;-82
2021/05/14 02:11:47;;;;;;;0.95;0.95;;;7.30;99.90;;;;;;4722078;30;20064;-83
2021/05/14 02:14:15;;;;;;;3.65;1.42;;;7.30;99.90;;;;;;4715096;30;20126;-83
2021/05/14 02:16:43;;;;;;;1.90;1.70;;;7.30;99.90;;;;;;4714454;30;20496;-83
2021/05/14 02:19:13;;;;;;;1.20;1.10;;;7.30;99.90;;;;;;4715711;30;20533;-83
2021/05/14 02:21:41;;;;;;;1.17;1.08;;;7.30;99.90;;;;;;4697455;30;20045;-83
2021/05/14 02:24:09;;;;;;;1.65;1.40;;;7.30;99.90;;;;;;4711596;30;20053;-83
2021/05/14 02:26:37;;;;;;;0.93;0.93;;;7.30;99.90;;;;;;4698868;30;20416;-83
2021/05/14 02:29:05;;;;;;;0.95;0.95;;;7.30;99.90;;;;;;4698536;30;20053;-83
2021/05/14 02:31:33;;;;;;;7.65;2.55;;;7.30;99.90;;;;;;4698463;30;20618;-83
2021/05/14 02:34:03;;;;;;;1.75;1.65;;;7.30;99.90;;;;;;4697707;30;20045;-83
2021/05/14 02:36:31;;;;;;;2.28;1.25;;;7.20;99.90;;;;;;4708171;30;20075;-83
2021/05/14 02:38:59;;;;;;;1.63;1.52;;;7.20;99.90;;;;;;4715129;30;20408;-83
2021/05/14 02:41:27;;;;;;;4.07;2.67;;;7.20;99.90;;;;;;4715508;30;20616;-83
2021/05/14 02:43:54;;;;;;;1.15;1.15;;;7.10;99.90;;;;;;4714059;30;20065;-83
2021/05/14 02:46:22;;;;;;;0.93;0.90;;;7.00;99.90;;;;;;4714377;30;20064;-83
2021/05/14 02:48:50;;;;;;;2.58;1.20;;;7.00;99.90;;;;;;4713687;30;20048;-83
2021/05/14 02:51:18;;;;;;;1.95;0.80;;;7.00;99.90;;;;;;4713320;30;20069;-83
2021/05/14 02:53:46;;;;;;;1.85;1.25;;;6.90;99.90;;;;;;4713522;30;20045;-83
2021/05/14 02:56:14;;;;;;;2.90;1.48;;;6.90;99.90;;;;;;4714062;30;20400;-83
2021/05/14 02:58:42;;;;;;;2.15;1.17;;;6.90;99.90;;;;;;4711437;30;20515;-83
2021/05/14 03:01:10;;;;;;;3.97;1.67;;;6.90;99.90;;;;;;4713732;30;20053;-83
2021/05/14 03:03:41;;;;;;;1.20;1.10;;;6.90;99.90;;;;;;4713548;30;20080;-83
2021/05/14 03:06:09;;;;;;;4.13;1.30;;;6.90;99.90;;;;;;4698359;30;20050;-83
2021/05/14 03:08:37;;;;;;;1.02;1.00;;;6.90;99.90;;;;;;4713888;30;20049;-83
2021/05/14 03:11:08;;;;;;;1.55;1.45;;;6.90;99.90;;;;;;4713955;30;20060;-83
2021/05/14 03:13:35;;;;;;;1.33;1.30;;;6.90;99.90;;;;;;4713739;30;20134;-83
2021/05/14 03:16:04;;;;;;;0.98;0.98;;;6.80;99.90;;;;;;4713541;30;20061;-83
2021/05/14 03:18:32;;;;;;;5.97;2.65;;;6.80;99.90;;;;;;4713626;30;20072;-83
2021/05/14 03:21:00;;;;;;;2.05;1.10;;;6.80;99.90;;;;;;4714469;30;20057;-83
2021/05/14 03:23:28;;;;;;;1.58;1.48;;;6.70;99.90;;;;;;4715584;30;20057;-83
2021/05/14 03:25:56;;;;;;;1.27;1.17;;;6.60;99.90;;;;;;4713426;30;20049;-83
2021/05/14 03:28:24;;;;;;;1.67;1.45;;;6.60;99.90;;;;;;4713278;30;20049;-83
2021/05/14 03:30:52;;;;;;;1.10;1.10;;;6.60;99.90;;;;;;4701039;30;20084;-83
2021/05/14 03:33:21;;;;;;;0.73;0.73;;;6.50;99.90;;;;;;4697428;30;20050;-83
2021/05/14 03:35:52;;;;;;;1.25;1.15;;;6.50;99.90;;;;;;4713411;30;20061;-83
2021/05/14 03:38:33;;;;;;;5.80;2.70;;;6.40;99.90;;;;;;4713461;30;20534;-83
2021/05/14 03:41:04;;;;;;;1.30;1.20;;;6.40;99.90;;;;;;4712920;30;20072;-83
2021/05/14 03:43:32;;;;;;;1.75;1.17;;;6.40;99.90;;;;;;4713454;30;20057;-84
2021/05/14 03:46:03;;;;;;;1.05;1.00;;;6.50;99.90;;;;;;4714519;30;20061;-83
2021/05/14 03:48:30;;;;;;;1.52;1.10;;;6.50;99.90;;;;;;4698748;30;20496;-83
2021/05/14 03:50:58;;;;;;;2.28;1.42;;;6.50;99.90;;;;;;4714695;30;20061;-83
2021/05/14 03:53:26;;;;;;;1.00;1.00;;;6.50;99.90;;;;;;4714266;30;20437;-83
2021/05/14 03:55:54;;;;;;;5.20;1.58;;;6.50;99.90;;;;;;4714487;30;20423;-84
2021/05/14 03:58:22;;;;;;;0.90;0.90;;;6.50;99.90;;;;;;4685147;30;20057;-83
2021/05/14 04:00:50;;;;;;;5.18;1.42;;;6.50;99.90;;;;;;4680725;30;20057;-83
2021/05/14 04:03:21;;;;;;;4.10;1.65;;;6.50;99.90;;;;;;4696869;30;20073;-83
2021/05/14 04:05:52;;;;;;;1.42;1.20;;;6.50;99.90;;;;;;4695447;30;20045;-83
2021/05/14 04:08:20;;;;;;;1.38;1.27;;;6.50;99.90;;;;;;4695226;30;20057;-83
2021/05/14 04:11:02;;;;;;;1.25;1.25;;;6.50;99.90;;;;;;4667624;30;20054;-83
2021/05/14 04:16:19;;;;;;;1.80;0.93;;;6.50;99.90;;;;;;4696416;30;20052;-83
2021/05/14 04:18:47;;;;;;;3.08;2.88;;;6.50;99.90;;;;;;4698469;30;20057;-83
2021/05/14 04:21:15;;;;;;;4.75;1.40;;;6.50;99.90;;;;;;4697977;30;20052;-83
2021/05/14 04:23:43;;;;;;;1.02;0.93;;;6.50;99.90;;;;;;4685203;30;20060;-83
2021/05/14 04:26:11;;;;;;;2.35;1.25;;;6.50;99.90;;;;;;4683876;30;20097;-84
2021/05/14 04:28:44;;;;;;;1.00;0.90;;;6.50;99.90;;;;;;4698105;30;20428;-84
2021/05/14 04:50:44;;;;;;;1.17;1.10;;;6.70;99.90;;;;;;4715584;30;20048;-86
2021/05/14 04:53:14;;;;;;;0.93;0.93;;;7.10;99.90;;;;;;4770115;30;20048;-85
2021/05/14 04:55:42;;;;;;;1.30;1.20;;;7.50;99.90;;;;;;4739780;30;20059;-87
2021/05/14 04:58:10;;;;;;;1.67;1.58;;;7.90;99.90;;;;;;4753957;30;20052;-86
2021/05/14 05:00:38;;;;;;;1.33;1.30;;;8.20;99.90;;;;;;4753955;30;20052;-87
2021/05/14 05:03:07;;;;;;;1.63;1.52;;;8.50;99.90;;;;;;4754054;30;20060;-87
2021/05/14 05:05:35;;;;;;;1.10;1.00;;;8.70;99.90;;;;;;4753987;30;20059;-87
2021/05/14 05:08:04;;;;;;;1.42;1.33;;;9.00;99.90;;;;;;4753709;30;20055;-88
2021/05/14 05:10:32;;;;;;;1.20;1.20;;;9.10;99.90;;;;;;4738949;30;20056;-88
2021/05/14 05:13:00;;;;;;;1.30;1.10;;;9.30;99.90;;;;;;4753826;30;20058;-87
2021/05/14 05:15:28;;;;;;;1.40;1.30;;;9.40;99.90;;;;;;4770218;30;20071;-87
2021/05/14 05:17:56;;;;;;;1.27;0.98;;;9.70;99.90;;;;;;4753391;30;20060;-86
2021/05/14 05:20:24;;;;;;;1.17;1.10;;;10.00;99.90;;;;;;4768857;30;20059;-86
2021/05/14 05:22:52;;;;;;;0.90;0.90;;;10.20;99.90;;;;;;4753927;30;20502;-86
2021/05/14 05:25:20;;;;;;;1.20;1.15;;;10.20;99.90;;;;;;4770359;30;20044;-86
2021/05/14 05:27:49;;;;;;;1.17;1.08;;;10.60;99.90;;;;;;4770311;30;20063;-85
2021/05/14 05:30:17;;;;;;;1.33;1.02;;;10.80;99.90;;;;;;4767734;30;20384;-86
2021/05/14 05:32:45;;;;;;;1.70;1.40;;;10.50;99.90;;;;;;4750529;30;20052;-86
2021/05/14 05:35:13;;;;;;;1.40;0.85;;;10.60;99.90;;;;;;4724749;30;20474;-87
2021/05/14 05:37:41;;;;;;;1.42;1.30;;;10.80;99.90;;;;;;4753006;30;20055;-87
2021/05/14 05:40:10;;;;;;;1.73;1.63;;;11.10;99.90;;;;;;4768256;30;20064;-87
2021/05/14 05:42:39;;;;;;;1.05;1.00;;;11.40;99.90;;;;;;4753567;30;20062;-85
2021/05/14 05:46:54;;;;;;;1.60;1.20;;;11.70;99.90;;;;;;4715795;30;20109;-85
2021/05/14 05:49:27;;;;;;;1.20;0.93;;;12.10;99.90;;;;;;4720944;30;20060;-87
2021/05/14 05:52:30;;;;;;;1.67;0.77;;;12.30;99.90;;;;;;4746830;30;20056;-83
2021/05/14 05:54:58;;;;;;;0.60;0.60;;;12.10;97.10;;;;;;4718477;30;20067;-81
2021/05/14 05:57:25;;;;;;;0.85;0.80;;;11.40;97.50;;;;;;4731696;30;20045;-83
2021/05/14 05:59:54;;;;;;;1.17;0.60;;;11.20;99.90;;;;;;4703337;30;20064;-81
2021/05/14 06:02:22;;;;;;;0.70;0.60;;;11.10;98.60;;;;;;4718234;30;20635;-81
2021/05/14 06:04:50;;;;;;;0.60;0.60;;;11.00;99.90;;;;;;4734439;30;20051;-80
2021/05/14 06:07:18;;;;;;;0.80;0.80;;;10.90;99.90;;;;;;4749799;30;20082;-81
2021/05/14 06:09:46;;;;;;;1.58;1.33;;;11.00;99.20;;;;;;4735018;30;20419;-80
2021/05/14 06:12:18;;;;;;;0.63;0.63;;;11.40;98.30;;;;;;4737493;30;20059;-81
2021/05/14 06:14:46;;;;;;;0.88;0.88;;;11.90;97.90;;;;;;4739090;30;20060;-81
2021/05/14 06:17:15;;;;;;;0.70;0.70;;;12.40;97.50;;;;;;4734725;30;20079;-82
2021/05/14 06:19:52;;;;;;;0.90;0.90;;;12.50;97.80;;;;;;4717355;30;20071;-81
2021/05/14 06:22:23;;;;;;;0.70;0.70;;;13.00;94.80;;;;;;4702450;30;20056;-83
2021/05/14 06:25:09;;;;;;;1.48;1.08;;;12.80;94.70;;;;;;4715588;30;20055;-83
2021/05/14 06:27:50;;;;;;;1.10;0.87;;;13.00;95.10;;;;;;4718154;30;20095;-80
2021/05/14 06:30:19;;;;;;;;;;;13.50;94.20;;;;;;4740579;30;20962;-79
2021/05/14 06:32:50;;;;;;;0.50;0.50;;;12.90;96.40;;;;;;4739095;30;19938;-81
2021/05/14 06:35:19;;;;;;;0.93;0.70;;;13.00;96.40;;;;;;4726055;30;20052;-81
2021/05/14 06:37:48;;;;;;;0.68;0.68;;;13.10;95.50;;;;;;4733033;30;20045;-79
2021/05/14 06:40:17;;;;;;;0.40;0.40;;;13.10;94.50;;;;;;4743642;29;20506;-79
2021/05/14 06:42:46;;;;;;;1.30;0.88;;;13.30;94.20;;;;;;4732559;30;20079;-79
2021/05/14 06:45:18;;;;;;;5.43;2.35;;;13.80;95.80;;;;;;4741608;30;20455;-81
2021/05/14 06:47:47;;;;;;;0.80;0.80;;;13.90;91.40;;;;;;4747523;30;20059;-79
2021/05/14 06:50:15;;;;;;;6.65;1.42;;;14.80;90.40;;;;;;4742422;30;20056;-78
2021/05/14 06:52:43;;;;;;;1.15;0.73;;;14.40;90.90;;;;;;4748374;30;20048;-78
2021/05/14 06:55:13;;;;;;;1.58;1.15;;;14.40;90.10;;;;;;4750061;30;20060;-79
2021/05/14 06:57:41;;;;;;;2.47;0.60;;;15.00;91.50;;;;;;4735077;30;20045;-79
2021/05/14 07:00:10;;;;;;;0.60;0.60;;;14.40;93.10;;;;;;4756840;30;20066;-79
2021/05/14 07:02:38;;;;;;;0.80;0.80;;;13.70;94.50;;;;;;4764179;30;20051;-80
2021/05/14 07:05:06;;;;;;;1.25;1.15;;;13.40;93.60;;;;;;4742073;30;20060;-79
2021/05/14 07:07:37;;;;;;;0.52;0.50;;;15.40;90.60;;;;;;4766953;30;20470;-81
2021/05/14 07:10:08;;;;;;;0.60;0.60;;;16.70;86.90;;;;;;4751389;30;20430;-80
2021/05/14 07:12:43;;;;;;;1.27;0.80;;;16.80;85.10;;;;;;4747314;30;20521;-80
2021/05/14 07:15:12;;;;;;;1.60;0.82;;;16.80;85.50;;;;;;4759975;30;20067;-81
2021/05/14 07:17:40;;;;;;;0.35;0.35;;;16.90;80.60;;;;;;4748957;30;20498;-80
2021/05/14 07:20:09;;;;;;;0.30;0.30;;;17.60;82.20;;;;;;4748670;30;20083;-80
2021/05/14 07:22:39;;;;;;;1.55;0.70;;;17.40;81.60;;;;;;4748976;30;20056;-81
2021/05/14 07:25:08;;;;;;;0.95;0.60;;;18.00;78.50;;;;;;4748331;30;20412;-80
2021/05/14 07:27:38;;;;;;;0.47;0.47;;;18.10;79.80;;;;;;4747854;30;20271;-79
2021/05/14 07:30:12;;;;;;;0.88;0.60;;;18.50;79.00;;;;;;4750353;30;20052;-80
2021/05/14 07:32:40;;;;;;;0.98;0.40;;;16.40;88.80;;;;;;4741017;30;20039;-80
2021/05/14 07:35:09;;;;;;;0.50;0.50;;;15.30;88.30;;;;;;4748654;30;20056;-79
2021/05/14 07:37:37;;;;;;;0.32;0.32;;;15.40;91.20;;;;;;4748617;30;20052;-80
2021/05/14 07:40:06;;;;;;;0.52;0.32;;;15.90;89.50;;;;;;4760010;30;20063;-82
2021/05/14 07:42:33;;;;;;;3.67;0.88;;;16.80;88.00;;;;;;4764918;30;20063;-79
2021/05/14 07:45:03;;;;;;;3.28;0.60;;;16.70;83.40;;;;;;4750793;30;20063;-79
2021/05/14 07:47:31;;;;;;;0.95;0.95;;;16.00;85.60;;;;;;4767023;30;20059;-80
2021/05/14 07:50:01;;;;;;;0.73;0.60;;;15.40;90.00;;;;;;4759776;30;20049;-79
2021/05/14 07:52:30;;;;;;;1.25;0.70;;;14.70;88.60;;;;;;4748727;30;20491;-80
2021/05/14 07:54:59;;;;;;;1.65;0.82;;;14.50;90.90;;;;;;4748237;30;20067;-81
2021/05/14 07:57:27;;;;;;;0.47;0.47;;;14.40;93.20;;;;;;4744946;30;20414;-80
2021/05/14 07:59:57;;;;;;;0.90;0.40;;;14.70;92.40;;;;;;4754081;30;20059;-80
2021/05/14 08:02:27;;;;;;;2.92;1.45;;;14.70;90.40;;;;;;4769798;30;20071;-79
2021/05/14 08:04:55;;;;;;;0.40;0.40;;;14.20;91.80;;;;;;4768823;30;20056;-79
2021/05/14 08:07:29;;;;;;;0.40;0.40;;;14.10;92.20;;;;;;4770029;30;20410;-81
2021/05/14 08:09:57;;;;;;;3.53;1.05;;;14.50;91.10;;;;;;4753725;30;20058;-78
2021/05/14 08:12:45;;;;;;;0.50;0.50;;;15.00;86.30;;;;;;4753689;30;20076;-78
2021/05/14 08:15:20;;;;;;;0.93;0.63;;;13.40;91.80;;;;;;4771284;30;20067;-80
2021/05/14 08:17:51;;;;;;;0.52;0.50;;;13.50;92.20;;;;;;4770434;30;20056;-80
2021/05/14 08:20:20;;;;;;;0.60;0.60;;;14.40;90.20;;;;;;4769759;30;20123;-79
2021/05/14 08:22:49;;;;;;;0.70;0.70;;;14.90;90.20;;;;;;4769824;30;20078;-81
2021/05/14 08:25:18;;;;;;;1.30;0.52;;;15.20;89.10;;;;;;4739297;30;20055;-82
2021/05/14 08:27:46;;;;;;;1.00;0.65;;;15.70;93.20;;;;;;4739621;30;20060;-82
2021/05/14 08:30:14;;;;;;;1.88;0.57;;;15.60;89.80;;;;;;4720716;30;20051;-81
2021/05/14 08:32:43;;;;;;;0.75;0.75;;;14.60;90.80;;;;;;4735410;30;20059;-81
2021/05/14 08:35:12;;;;;;;1.30;0.60;;;13.80;92.70;;;;;;4745975;30;20064;-83
2021/05/14 08:37:41;;;;;;;1.70;0.57;;;13.70;92.70;;;;;;4736300;30;20506;-82
2021/05/14 08:40:09;;;;;;;0.95;0.77;;;13.80;92.00;;;;;;4736002;30;20056;-80
2021/05/14 08:42:41;;;;;;;3.88;0.65;;;14.00;90.00;;;;;;4765358;30;20059;-82
2021/05/14 08:45:13;;;;;;;0.50;0.50;;;13.90;90.30;;;;;;4753618;30;20044;-81
2021/05/14 08:47:42;;;;;;;1.10;0.68;;;13.20;93.30;;;;;;4754025;30;20056;-82
2021/05/14 08:50:12;;;;;;;1.85;0.52;;;13.00;93.70;;;;;;4768803;30;20062;-83
2021/05/14 08:52:42;;;;;;;0.60;0.57;;;13.10;92.50;;;;;;4734496;30;20059;-82
2021/05/14 08:55:15;;;;;;;;;;;13.10;94.00;;;;;;4731770;30;20746;-82
2021/05/14 08:57:42;;;;;;;0.40;0.40;;;13.10;94.60;;;;;;4746681;30;20300;-84
2021/05/14 09:00:11;;;;;;;0.43;0.43;;;13.00;94.40;;;;;;4746480;30;20071;-83
2021/05/14 09:02:40;;;;;;;0.65;0.40;;;12.90;92.80;;;;;;4721048;30;20513;-82
2021/05/14 09:05:20;;;;;;;0.68;0.68;;;13.20;93.50;;;;;;4751386;30;20059;-82
2021/05/14 09:07:49;;;;;;;0.50;0.50;;;13.10;91.70;;;;;;4735784;30;20530;-84
2021/05/14 09:10:18;;;;;;;1.38;1.02;;;13.00;92.50;;;;;;4720528;30;20048;-84
2021/05/14 09:12:46;;;;;;;0.95;0.68;;;13.00;92.20;;;;;;4751352;30;20059;-84
2021/05/14 09:15:26;;;;;;;1.65;0.95;;;12.90;94.10;;;;;;4735834;30;20048;-84
2021/05/14 09:18:28;;;;;;;0.70;0.70;;;12.90;93.60;;;;;;4740467;30;20048;-84
2021/05/14 09:20:57;;;;;;;0.57;0.50;;;12.90;95.00;;;;;;4730956;30;20052;-84
2021/05/14 09:23:28;;;;;;;0.85;0.85;;;12.80;95.20;;;;;;4721981;30;20617;-83
2021/05/14 09:25:57;;;;;;;0.98;0.38;;;13.60;95.90;;;;;;4735007;30;20056;-85
2021/05/14 09:28:33;;;;;;;0.88;0.77;;;13.90;91.80;;;;;;4762575;30;20424;-83
2021/05/14 09:31:22;;;;;;;1.58;0.80;;;13.90;92.00;;;;;;4737719;30;20055;-84
2021/05/14 09:34:01;;;;;;;0.45;0.43;;;13.70;91.20;;;;;;4740569;30;20056;-82
2021/05/14 09:36:31;;;;;;;0.82;0.68;;;13.30;92.10;;;;;;4756277;30;20423;-82
2021/05/14 09:39:06;;;;;;;0.77;0.75;;;13.00;90.20;;;;;;4735609;30;20060;-77
2021/05/14 09:41:44;;;;;;;1.40;0.82;;;12.90;92.10;;;;;;4734798;30;20059;-79
2021/05/14 09:44:21;;;;;;;0.70;0.70;;;13.00;92.10;;;;;;4766982;30;20051;-85
2021/05/14 09:46:58;;;;;;;0.55;0.55;;;13.00;93.30;;;;;;4752440;30;20056;-81
2021/05/14 09:49:28;;;;;;;0.50;0.50;;;12.80;93.40;;;;;;4768314;30;20059;-80
2021/05/14 09:52:05;;;;;;;1.23;0.52;;;12.60;92.20;;;;;;4760675;30;20076;-80
2021/05/14 09:54:43;;;;;;;0.55;0.40;;;12.50;92.50;;;;;;4768775;30;20502;-80
2021/05/14 09:59:55;;;;;;;1.98;1.40;;;12.80;93.90;;;;;;4752121;30;20060;-81
2021/05/14 10:02:30;;;;;;;;;;;13.40;94.80;;;;;;4767654;30;20055;-85
2021/05/14 10:05:11;;;;;;;0.50;0.50;;;13.60;93.40;;;;;;4753038;30;20596;-90
2021/05/14 10:07:52;;;;;;;0.40;0.40;;;13.60;91.00;;;;;;4741184;30;20051;-85
2021/05/14 10:10:25;;;;;;;1.38;0.80;;;13.40;91.20;;;;;;4752115;30;20047;-89
2021/05/14 10:12:53;;;;;;;0.60;0.60;;;13.30;90.70;;;;;;4738278;30;20056;-84
2021/05/14 10:15:21;;;;;;;0.50;0.50;;;13.50;93.40;;;;;;4769488;30;20067;-81
2021/05/14 10:18:10;;;;;;;;;;;;;;;;;;;;;
2021/05/14 10:21:40;;;;;;;;;;;;;;;;;;;;;
2021/05/14 10:25:57;;;;;;;0.50;0.50;;;14.00;92.60;;;;;;4646398;30;20546;-90
2021/05/14 10:28:28;;;;;;;1.90;0.70;;;14.30;92.60;;;;;;4646845;30;20050;-86
2021/05/14 10:31:09;;;;;;;0.82;0.63;;;14.30;91.50;;;;;;4618921;30;20074;-86
2021/05/14 10:33:42;;;;;;;0.50;0.50;;;14.50;91.50;;;;;;4627036;31;20426;-89
2021/05/14 10:36:17;;;;;;;0.80;0.80;;;14.60;90.80;;;;;;4620099;30;20059;-87
2021/05/14 10:39:06;;;;;;;0.70;0.60;;;14.40;90.20;;;;;;4613686;31;20063;-87
2021/05/14 10:42:07;;;;;;;0.98;0.50;;;14.10;90.90;;;;;;4634413;30;20046;-88
2021/05/14 10:44:46;;;;;;;0.77;0.77;;;14.30;91.30;;;;;;4664001;30;20046;-84
2021/05/14 10:47:26;;;;;;;0.50;0.50;;;14.20;88.10;;;;;;4663910;30;20054;-87
2021/05/14 10:50:02;;;;;;;0.60;0.60;;;13.90;90.90;;;;;;4678454;30;20524;-85
2021/05/14 10:52:32;;;;;;;1.17;0.60;;;13.70;91.10;;;;;;4701043;30;20053;-87
2021/05/14 10:55:00;;;;;;;0.60;0.60;;;13.70;92.10;;;;;;4752616;30;20052;-84
2021/05/14 10:57:48;;;;;;;0.55;0.55;;;13.70;94.40;;;;;;4752085;30;20048;-88
2021/05/14 11:00:34;;;;;;;0.98;0.95;;;13.70;93.80;;;;;;4752800;30;20048;-87
2021/05/14 11:03:13;;;;;;;0.47;0.47;;;13.90;95.20;;;;;;4767747;30;20067;-86
2021/05/14 11:05:43;;;;;;;0.47;0.47;;;14.20;90.90;;;;;;4767273;30;20047;-88
2021/05/14 11:08:34;;;;;;;1.17;0.70;;;14.60;91.40;;;;;;4739363;30;20059;-89
2021/05/14 11:11:09;;;;;;;0.70;0.70;;;15.20;91.20;;;;;;4766842;30;20060;-86
2021/05/14 11:13:46;;;;;;;0.60;0.60;;;15.30;88.70;;;;;;4766441;30;20510;-85
2021/05/14 11:16:44;;;;;;;0.63;0.50;;;15.10;92.00;;;;;;4766271;30;20051;-83
2021/05/14 11:19:24;;;;;;;1.40;0.98;;;14.60;87.60;;;;;;4767681;30;20060;-84
2021/05/14 11:22:09;;;;;;;0.30;0.30;;;14.50;90.50;;;;;;4749778;30;20048;-82
2021/05/14 11:24:47;;;;;;;0.80;0.80;;;14.60;87.90;;;;;;4766518;30;20060;-84
2021/05/14 11:27:34;;;;;;;0.47;0.47;;;14.60;86.70;;;;;;4736792;30;20517;-83
2021/05/14 11:30:13;;;;;;;0.40;0.40;;;14.20;88.80;;;;;;4750031;30;20499;-84
2021/05/14 11:32:46;;;;;;;1.00;0.40;;;14.00;90.20;;;;;;4747725;30;20052;-87
2021/05/14 11:35:19;;;;;;;0.90;0.73;;;13.80;90.30;;;;;;4737755;30;20060;-84
2021/05/14 11:37:56;;;;;;;3.55;1.30;;;13.70;91.90;;;;;;4766701;30;20051;-81
2021/05/14 11:40:30;;;;;;;0.50;0.50;;;13.60;93.80;;;;;;4766598;30;20047;-85
2021/05/14 11:43:06;;;;;;;0.60;0.60;;;13.50;96.30;;;;;;4751303;30;20529;-81
2021/05/14 11:45:37;;;;;;;0.70;0.70;;;13.50;95.00;;;;;;4766629;30;20066;-80
2021/05/14 11:48:13;;;;;;;0.43;0.43;;;13.50;94.60;;;;;;4750384;30;20088;-81
2021/05/14 11:50:53;;;;;;;0.43;0.43;;;13.50;96.70;;;;;;4749542;30;20058;-81
2021/05/14 11:53:26;;;;;;;1.25;0.80;;;13.50;95.90;;;;;;4766586;30;20051;-81
2021/05/14 11:55:55;;;;;;;0.60;0.60;;;13.60;94.30;;;;;;4766942;30;20052;-81
2021/05/14 11:58:26;;;;;;;0.80;0.80;;;13.70;95.50;;;;;;4767122;30;20410;-82
2021/05/14 12:00:54;;;;;;;;;;;13.90;94.30;;;;;;4765883;30;20059;-82
2021/05/14 12:03:25;;;;;;;0.98;0.43;;;14.40;95.30;;;;;;4751907;30;20442;-82
2021/05/14 12:06:02;;;;;;;0.50;0.50;;;14.80;91.00;;;;;;4732985;30;20044;-83
2021/05/14 12:08:29;;;;;;;1.83;1.73;;;14.80;90.00;;;;;;4748852;30;20083;-82
2021/05/14 12:11:03;;;;;;;2.92;0.65;;;14.50;90.80;;;;;;4749412;30;20507;-82
2021/05/14 12:13:40;;;;;;;0.70;0.57;;;14.30;91.70;;;;;;4732879;30;20052;-81
2021/05/14 12:16:13;;;;;;;1.05;0.55;;;14.20;89.50;;;;;;4748923;30;20059;-83
2021/05/14 12:18:48;;;;;;;1.98;0.60;;;14.10;86.00;;;;;;4748813;30;20071;-82
2021/05/14 12:21:33;;;;;;;0.55;0.50;;;13.90;88.20;;;;;;4744954;30;20540;-85
2021/05/14 12:24:18;;;;;;;1.42;0.50;;;13.90;90.40;;;;;;4733156;30;20076;-86
2021/05/14 12:26:50;;;;;;;0.73;0.70;;;14.00;87.90;;;;;;4732414;30;20064;-84
2021/05/14 12:29:27;;;;;;;0.60;0.60;;;14.20;89.20;;;;;;4709097;30;20616;-86
2021/05/14 12:31:58;;;;;;;0.82;0.73;;;14.30;91.20;;;;;;4748949;30;20125;-87
2021/05/14 12:34:28;;;;;;;0.35;0.35;;;14.60;86.40;;;;;;4732680;30;20052;-88
2021/05/14 12:36:58;;;;;;;2.83;1.05;;;14.90;89.00;;;;;;4748450;30;20063;-84
2021/05/14 12:39:31;;;;;;;0.88;0.50;;;15.30;88.70;;;;;;4735395;30;20067;-86
2021/05/14 12:42:02;;;;;;;1.33;0.70;;;15.30;92.80;;;;;;4735572;30;20055;-85
2021/05/14 12:44:34;;;;;;;0.90;0.40;;;15.40;86.50;;;;;;4735751;30;20422;-85
2021/05/14 12:47:07;;;;;;;0.40;0.40;;;15.40;90.30;;;;;;4752353;30;20064;-84
2021/05/14 12:50:06;;;;;;;4.82;0.90;;;15.20;87.90;;;;;;4718619;30;20154;-87
2021/05/14 12:52:39;;;;;;;0.50;0.50;;;15.40;88.50;;;;;;4715071;30;20389;-84
2021/05/14 12:55:12;;;;;;;0.40;0.40;;;16.00;91.20;;;;;;4722320;30;20060;-83
2021/05/14 12:57:42;;;;;;;0.50;0.50;;;16.60;86.90;;;;;;4733793;30;20048;-83
2021/05/14 13:00:19;;;;;;;0.43;0.43;;;16.80;84.90;;;;;;4718276;30;20071;-85
2021/05/14 13:02:56;;;;;;;0.43;0.43;;;16.80;90.00;;;;;;4734125;30;20077;-83
2021/05/14 13:05:36;;;;;;;0.50;0.50;;;16.80;87.40;;;;;;4733847;30;20052;-84
2021/05/14 13:08:15;;;;;;;0.40;0.40;;;16.90;89.10;;;;;;4732902;30;20063;-83
2021/05/14 13:10:50;;;;;;;1.02;0.82;;;16.60;86.70;;;;;;4733942;30;20060;-83
2021/05/14 13:13:21;;;;;;;0.50;0.50;;;16.30;87.50;;;;;;4733760;30;20512;-84
2021/05/14 13:15:53;;;;;;;0.70;0.70;;;16.20;89.80;;;;;;4732925;30;20059;-85
2021/05/14 13:18:34;;;;;;;4.25;0.60;;;16.50;88.80;;;;;;4732992;30;20056;-84
2021/05/14 13:21:04;;;;;;;1.60;1.10;;;16.90;84.50;;;;;;4732817;30;20056;-84
2021/05/14 13:23:35;;;;;;;0.57;0.57;;;17.10;83.80;;;;;;4734544;30;20049;-82
2021/05/14 13:26:04;;;;;;;0.60;0.60;;;17.20;88.40;;;;;;4734150;30;20040;-82
2021/05/14 13:28:34;;;;;;;0.77;0.50;;;17.40;81.80;;;;;;4731342;30;20056;-83
2021/05/14 13:31:03;;;;;;;0.75;0.75;;;17.40;84.30;;;;;;4718944;30;20065;-82
2021/05/14 13:33:34;;;;;;;1.02;0.75;;;16.70;83.20;;;;;;4726912;30;20068;-82
2021/05/14 13:36:01;;;;;;;0.50;0.40;;;16.40;88.20;;;;;;4732926;30;20451;-82
2021/05/14 13:38:29;;;;;;;1.85;0.50;;;16.10;80.80;;;;;;4761529;30;20171;-82
2021/05/14 13:40:57;;;;;;;0.60;0.60;;;15.70;88.90;;;;;;4732762;30;20049;-86
2021/05/14 13:43:25;;;;;;;0.77;0.50;;;15.70;87.90;;;;;;4733505;30;20056;-78